createdAt,value
2018-12-17T00:00:02.688Z,-0.56
2018-12-17T00:01:03.165Z,-0.62
2018-12-17T00:02:02.435Z,-0.68
2018-12-17T00:03:02.755Z,-0.68
2018-12-17T00:04:03.069Z,-0.62
2018-12-17T00:05:02.373Z,-0.62
2018-12-17T00:06:02.692Z,-0.62
2018-12-17T00:07:03.047Z,-0.68
2018-12-17T00:08:02.360Z,-0.68
2018-12-17T00:09:02.766Z,-0.62
2018-12-17T00:10:03.128Z,-0.62
2018-12-17T00:11:02.439Z,-0.62
2018-12-17T00:12:02.773Z,-0.62
2018-12-17T00:13:03.143Z,-0.62
2018-12-17T00:14:02.456Z,-0.62
2018-12-17T00:15:02.758Z,-0.62
2018-12-17T00:16:03.078Z,-0.62
2018-12-17T00:17:02.370Z,-0.62
2018-12-17T00:18:02.674Z,-0.62
2018-12-17T00:19:03.070Z,-0.62
2018-12-17T00:20:02.435Z,-0.62
2018-12-17T00:21:02.705Z,-0.62
2018-12-17T00:22:02.995Z,-0.62
2018-12-17T00:23:02.333Z,-0.62
2018-12-17T00:24:02.688Z,-0.62
2018-12-17T00:25:03.043Z,-0.62
2018-12-17T00:26:02.354Z,-0.62
2018-12-17T00:27:02.678Z,-0.68
2018-12-17T00:28:08.052Z,-0.62
2018-12-17T00:29:02.592Z,-0.62
2018-12-17T00:30:02.841Z,-0.68
2018-12-17T00:31:03.218Z,-0.62
2018-12-17T00:32:02.515Z,-0.62
2018-12-17T00:33:02.760Z,-0.62
2018-12-17T00:34:03.159Z,-0.62
2018-12-17T00:35:02.461Z,-0.62
2018-12-17T00:36:02.771Z,-0.62
2018-12-17T00:37:03.114Z,-0.56
2018-12-17T00:38:02.437Z,-0.62
2018-12-17T00:39:02.842Z,-0.62
2018-12-17T00:40:03.147Z,-0.62
2018-12-17T00:41:02.445Z,-0.62
2018-12-17T00:42:02.809Z,-0.68
2018-12-17T00:43:03.241Z,-0.62
2018-12-17T00:44:02.520Z,-0.62
2018-12-17T00:45:02.834Z,-0.62
2018-12-17T00:46:03.154Z,-0.62
2018-12-17T00:47:02.442Z,-0.56
2018-12-17T00:48:02.771Z,-0.5
2018-12-17T00:49:03.134Z,-0.5
2018-12-17T00:50:02.435Z,-0.5
2018-12-17T00:51:02.784Z,-0.5
2018-12-17T00:52:03.068Z,-0.5
2018-12-17T00:53:02.352Z,-0.56
2018-12-17T00:54:02.684Z,-0.56
2018-12-17T00:55:03.053Z,-0.5
2018-12-17T00:56:02.354Z,-0.5
2018-12-17T00:57:02.677Z,-0.5
2018-12-17T00:58:02.987Z,-0.5
2018-12-17T00:59:02.278Z,-0.5
2018-12-17T01:00:02.661Z,-0.43
2018-12-17T01:01:03.053Z,-0.43
2018-12-17T01:02:02.352Z,-0.43
2018-12-17T01:03:03.481Z,-0.43
2018-12-17T01:04:02.824Z,-0.5
2018-12-17T01:05:03.152Z,-0.43
2018-12-17T01:06:02.492Z,-0.43
2018-12-17T01:07:02.808Z,-0.5
2018-12-17T01:08:03.075Z,-0.43
2018-12-17T01:09:02.363Z,-0.43
2018-12-17T01:10:02.765Z,-0.43
2018-12-17T01:11:03.078Z,-0.43
2018-12-17T01:12:02.361Z,-0.43
2018-12-17T01:13:02.782Z,-0.43
2018-12-17T01:14:03.063Z,-0.43
2018-12-17T01:15:02.362Z,-0.43
2018-12-17T01:16:02.660Z,-0.43
2018-12-17T01:17:02.917Z,-0.37
2018-12-17T01:18:03.293Z,-0.37
2018-12-17T01:19:02.585Z,-0.37
2018-12-17T01:20:02.847Z,-0.37
2018-12-17T01:21:03.160Z,-0.37
2018-12-17T01:22:02.436Z,-0.37
2018-12-17T01:23:02.757Z,-0.43
2018-12-17T01:24:03.124Z,-0.43
2018-12-17T01:25:02.444Z,-0.43
2018-12-17T01:26:02.817Z,-0.43
2018-12-17T01:27:03.091Z,-0.5
2018-12-17T01:28:02.355Z,-0.5
2018-12-17T01:29:02.731Z,-0.43
2018-12-17T01:30:03.053Z,-0.43
2018-12-17T01:31:02.375Z,-0.43
2018-12-17T01:32:02.666Z,-0.43
2018-12-17T01:33:02.914Z,-0.43
2018-12-17T01:34:03.229Z,-0.37
2018-12-17T01:35:02.528Z,-0.37
2018-12-17T01:36:02.930Z,-0.37
2018-12-17T01:37:03.228Z,-0.37
2018-12-17T01:38:02.525Z,-0.43
2018-12-17T01:39:02.829Z,-0.37
2018-12-17T01:40:03.076Z,-0.37
2018-12-17T01:41:02.410Z,-0.37
2018-12-17T01:42:02.727Z,-0.37
2018-12-17T01:43:03.012Z,-0.37
2018-12-17T01:44:02.275Z,-0.37
2018-12-17T01:45:02.601Z,-0.37
2018-12-17T01:46:02.904Z,-0.31
2018-12-17T01:47:03.179Z,-0.31
2018-12-17T01:48:02.502Z,-0.31
2018-12-17T01:49:02.756Z,-0.31
2018-12-17T01:50:03.076Z,-0.31
2018-12-17T01:51:02.359Z,-0.31
2018-12-17T01:52:02.679Z,-0.37
2018-12-17T01:53:03.043Z,-0.37
2018-12-17T01:54:02.346Z,-0.37
2018-12-17T01:55:02.677Z,-0.31
2018-12-17T01:56:03.061Z,-0.31
2018-12-17T01:57:02.362Z,-0.31
2018-12-17T01:58:02.730Z,-0.31
2018-12-17T01:59:03.055Z,-0.31
2018-12-17T02:00:02.374Z,-0.37
2018-12-17T02:01:02.696Z,-0.37
2018-12-17T02:02:03.003Z,-0.31
2018-12-17T02:03:02.280Z,-0.31
2018-12-17T02:04:02.653Z,-0.31
2018-12-17T02:05:02.911Z,-0.31
2018-12-17T02:06:03.232Z,-0.31
2018-12-17T02:07:02.518Z,-0.31
2018-12-17T02:08:03.090Z,-0.25
2018-12-17T02:09:02.478Z,-0.25
2018-12-17T02:10:03.105Z,-0.31
2018-12-17T02:11:02.577Z,-0.25
2018-12-17T02:12:03.186Z,-0.25
2018-12-17T02:13:02.737Z,-0.25
2018-12-17T02:14:03.264Z,-0.25
2018-12-17T02:15:02.517Z,-0.25
2018-12-17T02:16:02.895Z,-0.25
2018-12-17T02:17:03.174Z,-0.25
2018-12-17T02:18:02.442Z,-0.25
2018-12-17T02:19:02.752Z,-0.31
2018-12-17T02:20:03.076Z,-0.31
2018-12-17T02:21:02.362Z,-0.31
2018-12-17T02:22:02.723Z,-0.31
2018-12-17T02:23:03.005Z,-0.31
2018-12-17T02:24:02.300Z,-0.25
2018-12-17T02:25:02.614Z,-0.25
2018-12-17T02:26:02.921Z,-0.31
2018-12-17T02:27:03.290Z,-0.37
2018-12-17T02:28:02.696Z,-0.37
2018-12-17T02:29:02.988Z,-0.31
2018-12-17T02:30:02.278Z,-0.25
2018-12-17T02:31:02.601Z,-0.31
2018-12-17T02:32:02.919Z,-0.31
2018-12-17T02:33:03.294Z,-0.25
2018-12-17T02:34:02.602Z,-0.25
2018-12-17T02:35:02.920Z,-0.25
2018-12-17T02:36:03.228Z,-0.25
2018-12-17T02:37:02.512Z,-0.25
2018-12-17T02:38:02.765Z,-0.25
2018-12-17T02:39:03.130Z,-0.25
2018-12-17T02:40:02.432Z,-0.25
2018-12-17T02:41:02.755Z,-0.18
2018-12-17T02:42:03.956Z,-0.25
2018-12-17T02:43:02.281Z,-0.25
2018-12-17T02:44:02.645Z,-0.25
2018-12-17T02:45:03.016Z,-0.18
2018-12-17T02:46:02.272Z,-0.25
2018-12-17T02:47:02.603Z,-0.25
2018-12-17T02:48:02.904Z,-0.18
2018-12-17T02:49:03.175Z,-0.25
2018-12-17T02:50:02.440Z,-0.25
2018-12-17T02:51:02.817Z,-0.25
2018-12-17T02:52:03.070Z,-0.25
2018-12-17T02:53:02.359Z,-0.18
2018-12-17T02:54:02.682Z,-0.25
2018-12-17T02:55:03.035Z,-0.25
2018-12-17T02:56:02.533Z,-0.25
2018-12-17T02:57:02.958Z,-0.25
2018-12-17T02:58:02.274Z,-0.25
2018-12-17T02:59:02.650Z,-0.25
2018-12-17T03:00:02.914Z,-0.25
2018-12-17T03:01:03.305Z,-0.25
2018-12-17T03:02:02.680Z,-0.25
2018-12-17T03:03:03.014Z,-0.18
2018-12-17T03:04:02.292Z,-0.18
2018-12-17T03:05:02.591Z,-0.18
2018-12-17T03:06:02.852Z,-0.18
2018-12-17T03:07:03.259Z,-0.18
2018-12-17T03:08:02.522Z,-0.18
2018-12-17T03:09:02.842Z,-0.18
2018-12-17T03:10:03.172Z,-0.12
2018-12-17T03:11:02.433Z,-0.12
2018-12-17T03:12:02.757Z,-0.18
2018-12-17T03:13:03.127Z,-0.18
2018-12-17T03:14:02.515Z,-0.18
2018-12-17T03:15:02.757Z,-0.18
2018-12-17T03:16:03.075Z,-0.18
2018-12-17T03:17:02.363Z,-0.18
2018-12-17T03:18:02.734Z,-0.18
2018-12-17T03:19:03.084Z,-0.18
2018-12-17T03:20:02.350Z,-0.18
2018-12-17T03:21:02.671Z,-0.12
2018-12-17T03:22:02.912Z,-0.18
2018-12-17T03:23:03.155Z,-0.18
2018-12-17T03:24:02.447Z,-0.12
2018-12-17T03:25:02.861Z,-0.18
2018-12-17T03:26:03.161Z,-0.18
2018-12-17T03:27:02.449Z,-0.12
2018-12-17T03:28:02.826Z,-0.12
2018-12-17T03:29:03.130Z,-0.12
2018-12-17T03:30:02.494Z,-0.12
2018-12-17T03:31:02.854Z,-0.12
2018-12-17T03:32:03.151Z,-0.12
2018-12-17T03:33:02.594Z,-0.18
2018-12-17T03:34:02.915Z,-0.18
2018-12-17T03:35:03.155Z,-0.12
2018-12-17T03:36:02.461Z,-0.12
2018-12-17T03:37:02.816Z,-0.18
2018-12-17T03:38:03.090Z,-0.12
2018-12-17T03:39:02.365Z,-0.12
2018-12-17T03:40:02.679Z,-0.12
2018-12-17T03:41:03.045Z,-0.12
2018-12-17T03:42:02.372Z,-0.12
2018-12-17T03:43:02.778Z,-0.12
2018-12-17T03:44:03.123Z,-0.12
2018-12-17T03:45:02.434Z,-0.12
2018-12-17T03:46:02.756Z,-0.12
2018-12-17T03:47:03.075Z,-0.12
2018-12-17T03:48:02.378Z,-0.12
2018-12-17T03:49:02.730Z,-0.12
2018-12-17T03:50:03.000Z,-0.12
2018-12-17T03:51:02.276Z,-0.12
2018-12-17T03:52:03.393Z,-0.12
2018-12-17T03:53:02.688Z,-0.12
2018-12-17T03:54:03.057Z,-0.12
2018-12-17T03:55:02.415Z,-0.06
2018-12-17T03:56:02.688Z,-0.12
2018-12-17T03:57:02.993Z,-0.12
2018-12-17T03:58:02.290Z,-0.18
2018-12-17T03:59:02.650Z,-0.18
2018-12-17T04:00:03.011Z,-0.18
2018-12-17T04:01:02.329Z,-0.25
2018-12-17T04:02:02.597Z,-0.25
2018-12-17T04:03:02.997Z,-0.25
2018-12-17T04:04:02.291Z,-0.31
2018-12-17T04:05:02.616Z,-0.31
2018-12-17T04:06:02.967Z,-0.31
2018-12-17T04:07:02.284Z,-0.31
2018-12-17T04:08:02.612Z,-0.31
2018-12-17T04:09:02.932Z,-0.31
2018-12-17T04:10:03.257Z,-0.25
2018-12-17T04:11:02.522Z,-0.25
2018-12-17T04:12:02.891Z,-0.25
2018-12-17T04:13:03.166Z,-0.25
2018-12-17T04:14:02.439Z,-0.18
2018-12-17T04:15:02.762Z,-0.18
2018-12-17T04:16:03.129Z,-0.25
2018-12-17T04:17:02.523Z,-0.25
2018-12-17T04:18:02.831Z,-0.18
2018-12-17T04:19:03.074Z,-0.18
2018-12-17T04:20:02.359Z,-0.18
2018-12-17T04:21:02.675Z,-0.18
2018-12-17T04:22:03.237Z,-0.18
2018-12-17T04:23:02.530Z,-0.18
2018-12-17T04:24:02.835Z,-0.18
2018-12-17T04:25:03.078Z,-0.18
2018-12-17T04:26:02.357Z,-0.18
2018-12-17T04:27:02.694Z,-0.12
2018-12-17T04:28:03.051Z,-0.12
2018-12-17T04:29:06.690Z,-0.18
2018-12-17T04:30:02.268Z,-0.18
2018-12-17T04:31:02.656Z,-0.18
2018-12-17T04:32:02.913Z,-0.12
2018-12-17T04:33:03.160Z,-0.12
2018-12-17T04:34:02.496Z,-0.12
2018-12-17T04:35:02.756Z,-0.12
2018-12-17T04:36:03.125Z,-0.18
2018-12-17T04:37:02.438Z,-0.12
2018-12-17T04:38:02.746Z,-0.12
2018-12-17T04:39:03.430Z,-0.12
2018-12-17T04:40:02.827Z,-0.12
2018-12-17T04:41:03.155Z,-0.12
2018-12-17T04:42:02.444Z,-0.06
2018-12-17T04:43:02.818Z,-0.12
2018-12-17T04:44:03.092Z,-0.06
2018-12-17T04:45:02.411Z,-0.12
2018-12-17T04:46:02.765Z,-0.12
2018-12-17T04:47:03.093Z,-0.12
2018-12-17T04:48:02.370Z,-0.12
2018-12-17T04:49:02.679Z,-0.12
2018-12-17T04:50:03.051Z,-0.06
2018-12-17T04:51:02.353Z,-0.06
2018-12-17T04:52:02.683Z,-0.06
2018-12-17T04:53:02.988Z,-0.06
2018-12-17T04:54:02.303Z,-0.06
2018-12-17T04:55:02.653Z,-0.06
2018-12-17T04:56:02.974Z,-0.06
2018-12-17T04:57:02.269Z,-0.06
2018-12-17T04:58:02.513Z,-0.06
2018-12-17T04:59:02.755Z,-0.06
2018-12-17T05:00:03.071Z,-0.06
2018-12-17T05:01:02.366Z,-0.12
2018-12-17T05:02:02.733Z,-0.12
2018-12-17T05:03:03.099Z,-0.18
2018-12-17T05:04:02.347Z,-0.18
2018-12-17T05:05:02.599Z,-0.12
2018-12-17T05:06:02.957Z,-0.12
2018-12-17T05:07:02.329Z,-0.18
2018-12-17T05:08:02.628Z,-0.12
2018-12-17T05:09:02.917Z,-0.12
2018-12-17T05:10:03.240Z,-0.12
2018-12-17T05:11:02.517Z,-0.12
2018-12-17T05:12:02.896Z,-0.06
2018-12-17T05:13:03.162Z,-0.12
2018-12-17T05:14:02.492Z,-0.06
2018-12-17T05:15:03.816Z,-0.06
2018-12-17T05:16:03.242Z,-0.06
2018-12-17T05:17:02.573Z,-0.06
2018-12-17T05:18:02.921Z,-0.06
2018-12-17T05:19:03.235Z,-0.06
2018-12-17T05:20:02.523Z,-0.06
2018-12-17T05:21:02.854Z,-0.06
2018-12-17T05:22:03.152Z,-0.06
2018-12-17T05:23:02.452Z,-0.06
2018-12-17T05:24:02.807Z,-0.06
2018-12-17T05:25:03.058Z,-0.06
2018-12-17T05:26:03.080Z,-0.06
2018-12-17T05:27:02.384Z,0
2018-12-17T05:28:02.670Z,-0.06
2018-12-17T05:29:02.926Z,-0.06
2018-12-17T05:30:03.288Z,0
2018-12-17T05:31:02.617Z,-0.06
2018-12-17T05:32:02.937Z,-0.06
2018-12-17T05:33:03.276Z,-0.06
2018-12-17T05:34:02.801Z,-0.06
2018-12-17T05:35:03.133Z,-0.06
2018-12-17T05:36:02.580Z,-0.06
2018-12-17T05:37:02.927Z,-0.06
2018-12-17T05:38:03.239Z,-0.06
2018-12-17T05:39:02.528Z,-0.06
2018-12-17T05:40:02.842Z,-0.06
2018-12-17T05:41:03.208Z,-0.06
2018-12-17T05:42:02.508Z,-0.06
2018-12-17T05:43:02.751Z,-0.06
2018-12-17T05:44:02.991Z,0
2018-12-17T05:45:02.288Z,0
2018-12-17T05:46:02.612Z,-0.06
2018-12-17T05:47:02.981Z,-0.06
2018-12-17T05:48:02.309Z,-0.06
2018-12-17T05:49:03.534Z,-0.06
2018-12-17T05:50:02.915Z,-0.06
2018-12-17T05:51:03.238Z,-0.06
2018-12-17T05:52:02.541Z,-0.06
2018-12-17T05:53:02.935Z,-0.06
2018-12-17T05:54:03.246Z,-0.06
2018-12-17T05:55:02.508Z,-0.06
2018-12-17T05:56:03.631Z,-0.06
2018-12-17T05:57:02.924Z,-0.06
2018-12-17T05:58:03.281Z,-0.06
2018-12-17T05:59:02.594Z,-0.06
2018-12-17T06:00:02.923Z,-0.06
2018-12-17T06:01:03.393Z,0
2018-12-17T06:02:02.698Z,-0.06
2018-12-17T06:03:03.083Z,0
2018-12-17T06:04:02.441Z,-0.06
2018-12-17T06:05:02.750Z,-0.06
2018-12-17T06:06:03.154Z,0
2018-12-17T06:07:02.432Z,-0.06
2018-12-17T06:08:02.753Z,-0.06
2018-12-17T06:09:03.094Z,-0.06
2018-12-17T06:10:02.450Z,-0.06
2018-12-17T06:11:02.752Z,0
2018-12-17T06:12:03.089Z,-0.06
2018-12-17T06:13:02.353Z,0
2018-12-17T06:14:02.675Z,0
2018-12-17T06:15:03.053Z,0
2018-12-17T06:16:02.368Z,0
2018-12-17T06:17:02.680Z,0
2018-12-17T06:18:02.999Z,0
2018-12-17T06:19:02.368Z,0
2018-12-17T06:20:02.727Z,0
2018-12-17T06:21:03.100Z,0
2018-12-17T06:22:02.357Z,0
2018-12-17T06:23:02.679Z,0
2018-12-17T06:24:03.083Z,0
2018-12-17T06:25:02.447Z,0.06
2018-12-17T06:26:02.812Z,0
2018-12-17T06:27:03.141Z,0.06
2018-12-17T06:28:02.458Z,0.06
2018-12-17T06:29:02.757Z,0.06
2018-12-17T06:30:03.077Z,0.06
2018-12-17T06:31:02.358Z,0.06
2018-12-17T06:32:02.677Z,0.06
2018-12-17T06:33:03.053Z,0.06
2018-12-17T06:34:02.395Z,0.06
2018-12-17T06:35:02.679Z,0.06
2018-12-17T06:36:02.997Z,0.06
2018-12-17T06:37:02.280Z,0.06
2018-12-17T06:38:02.606Z,0.06
2018-12-17T06:39:02.966Z,0.06
2018-12-17T06:40:02.294Z,0.06
2018-12-17T06:41:02.612Z,0.06
2018-12-17T06:42:02.928Z,0.06
2018-12-17T06:43:03.239Z,0.06
2018-12-17T06:44:02.522Z,0.06
2018-12-17T06:45:02.933Z,0.06
2018-12-17T06:46:03.236Z,0.06
2018-12-17T06:47:02.518Z,0.06
2018-12-17T06:48:02.840Z,0.06
2018-12-17T06:49:03.209Z,0.06
2018-12-17T06:50:02.572Z,0.06
2018-12-17T06:51:02.847Z,0.06
2018-12-17T06:52:03.153Z,0.06
2018-12-17T06:53:02.436Z,0.06
2018-12-17T06:54:02.758Z,0.06
2018-12-17T06:55:03.125Z,0.06
2018-12-17T06:56:02.432Z,0.06
2018-12-17T06:57:02.763Z,0.06
2018-12-17T06:58:03.069Z,0.12
2018-12-17T06:59:02.379Z,0.12
2018-12-17T07:00:02.691Z,0.12
2018-12-17T07:01:03.070Z,0.12
2018-12-17T07:02:03.233Z,0.12
2018-12-17T07:03:02.528Z,0.12
2018-12-17T07:04:02.890Z,0.12
2018-12-17T07:05:03.246Z,0.12
2018-12-17T07:06:02.521Z,0.12
2018-12-17T07:07:02.898Z,0.12
2018-12-17T07:08:03.170Z,0.12
2018-12-17T07:09:02.439Z,0.06
2018-12-17T07:10:02.775Z,0.12
2018-12-17T07:11:03.073Z,0.12
2018-12-17T07:12:02.366Z,0.12
2018-12-17T07:13:02.756Z,0.12
2018-12-17T07:14:03.071Z,0.12
2018-12-17T07:15:02.353Z,0.12
2018-12-17T07:16:02.592Z,0.12
2018-12-17T07:17:02.917Z,0.12
2018-12-17T07:18:03.325Z,0.12
2018-12-17T07:19:02.592Z,0.12
2018-12-17T07:20:02.838Z,0.12
2018-12-17T07:21:03.323Z,0.12
2018-12-17T07:22:02.608Z,0.12
2018-12-17T07:23:02.976Z,0.18
2018-12-17T07:24:02.329Z,0.18
2018-12-17T07:25:02.601Z,0.18
2018-12-17T07:26:02.917Z,0.18
2018-12-17T07:27:03.235Z,0.18
2018-12-17T07:28:02.588Z,0.18
2018-12-17T07:29:02.969Z,0.18
2018-12-17T07:30:02.273Z,0.18
2018-12-17T07:31:02.590Z,0.18
2018-12-17T07:32:02.925Z,0.18
2018-12-17T07:33:03.220Z,0.18
2018-12-17T07:34:02.531Z,0.18
2018-12-17T07:35:02.930Z,0.18
2018-12-17T07:36:03.740Z,0.18
2018-12-17T07:37:03.076Z,0.25
2018-12-17T07:38:02.359Z,0.25
2018-12-17T07:39:02.678Z,0.25
2018-12-17T07:40:03.004Z,0.18
2018-12-17T07:41:02.341Z,0.18
2018-12-17T07:42:02.591Z,0.25
2018-12-17T07:43:02.917Z,0.25
2018-12-17T07:44:03.240Z,0.25
2018-12-17T07:45:02.527Z,0.25
2018-12-17T07:46:03.006Z,0.25
2018-12-17T07:47:02.278Z,0.25
2018-12-17T07:48:02.601Z,0.25
2018-12-17T07:49:02.907Z,0.25
2018-12-17T07:50:03.235Z,0.31
2018-12-17T07:51:02.574Z,0.31
2018-12-17T07:52:02.962Z,0.31
2018-12-17T07:53:02.274Z,0.31
2018-12-17T07:54:02.594Z,0.31
2018-12-17T07:55:02.919Z,0.31
2018-12-17T07:56:03.251Z,0.31
2018-12-17T07:57:02.563Z,0.31
2018-12-17T07:58:02.844Z,0.31
2018-12-17T07:59:03.144Z,0.31
2018-12-17T08:00:02.439Z,0.31
2018-12-17T08:01:02.763Z,0.31
2018-12-17T08:02:03.002Z,0.31
2018-12-17T08:03:02.451Z,0.31
2018-12-17T08:04:02.753Z,0.31
2018-12-17T08:05:03.081Z,0.37
2018-12-17T08:06:02.362Z,0.37
2018-12-17T08:07:02.686Z,0.43
2018-12-17T08:08:03.046Z,0.43
2018-12-17T08:09:02.410Z,0.5
2018-12-17T08:10:02.673Z,0.5
2018-12-17T08:11:02.997Z,0.56
2018-12-17T08:12:02.285Z,0.56
2018-12-17T08:13:02.589Z,0.5
2018-12-17T08:14:02.908Z,0.5
2018-12-17T08:15:03.167Z,0.5
2018-12-17T08:16:02.448Z,0.5
2018-12-17T08:17:02.768Z,0.5
2018-12-17T08:18:03.094Z,0.5
2018-12-17T08:19:02.421Z,0.5
2018-12-17T08:20:02.670Z,0.5
2018-12-17T08:21:02.912Z,0.5
2018-12-17T08:22:03.251Z,0.5
2018-12-17T08:23:02.610Z,0.5
2018-12-17T08:24:03.165Z,0.5
2018-12-17T08:25:03.326Z,0.56
2018-12-17T08:26:02.599Z,0.56
2018-12-17T08:27:02.924Z,0.56
2018-12-17T08:28:03.300Z,0.56
2018-12-17T08:29:02.607Z,0.62
2018-12-17T08:30:03.973Z,0.62
2018-12-17T08:31:02.515Z,0.62
2018-12-17T08:32:02.847Z,0.62
2018-12-17T08:33:03.153Z,0.62
2018-12-17T08:34:02.434Z,0.62
2018-12-17T08:35:02.810Z,0.62
2018-12-17T08:36:03.082Z,0.62
2018-12-17T08:37:02.366Z,0.62
2018-12-17T08:38:02.673Z,0.62
2018-12-17T08:39:03.053Z,0.62
2018-12-17T08:40:02.387Z,0.62
2018-12-17T08:41:02.771Z,0.62
2018-12-17T08:42:03.082Z,0.62
2018-12-17T08:43:02.370Z,0.56
2018-12-17T08:44:02.702Z,0.62
2018-12-17T08:45:03.001Z,0.56
2018-12-17T08:46:02.363Z,0.56
2018-12-17T08:47:02.680Z,0.56
2018-12-17T08:48:02.992Z,0.56
2018-12-17T08:49:02.259Z,0.56
2018-12-17T08:50:02.509Z,0.56
2018-12-17T08:51:02.820Z,0.62
2018-12-17T08:52:03.157Z,0.68
2018-12-17T08:53:02.493Z,0.68
2018-12-17T08:54:02.763Z,0.75
2018-12-17T08:55:03.080Z,0.81
2018-12-17T08:56:02.367Z,0.75
2018-12-17T08:57:02.732Z,0.81
2018-12-17T08:58:03.002Z,0.81
2018-12-17T08:59:02.282Z,0.87
2018-12-17T09:00:02.593Z,0.93
2018-12-17T09:01:02.928Z,0.93
2018-12-17T09:02:03.287Z,1
2018-12-17T09:03:02.596Z,1
2018-12-17T09:04:02.932Z,1.06
2018-12-17T09:05:03.329Z,1.06
2018-12-17T09:06:02.592Z,1.06
2018-12-17T09:07:02.924Z,1.06
2018-12-17T09:08:03.290Z,1.06
2018-12-17T09:09:04.359Z,1.06
2018-12-17T09:10:02.675Z,1.12
2018-12-17T09:11:03.005Z,1.12
2018-12-17T09:12:02.268Z,1.12
2018-12-17T09:13:02.596Z,1.18
2018-12-17T09:14:02.966Z,1.18
2018-12-17T09:15:02.270Z,1.18
2018-12-17T09:16:02.518Z,1.18
2018-12-17T09:17:02.829Z,1.18
2018-12-17T09:18:03.160Z,1.25
2018-12-17T09:19:02.451Z,1.25
2018-12-17T09:20:02.804Z,1.31
2018-12-17T09:21:03.074Z,1.31
2018-12-17T09:22:02.369Z,1.31
2018-12-17T09:23:02.695Z,1.31
2018-12-17T09:24:03.048Z,1.31
2018-12-17T09:25:03.286Z,1.37
2018-12-17T09:26:02.592Z,1.43
2018-12-17T09:27:03.712Z,1.43
2018-12-17T09:28:03.005Z,1.37
2018-12-17T09:29:02.276Z,1.43
2018-12-17T09:30:02.615Z,1.43
2018-12-17T09:31:02.965Z,1.43
2018-12-17T09:32:02.291Z,1.43
2018-12-17T09:33:02.623Z,1.5
2018-12-17T09:34:02.919Z,1.5
2018-12-17T09:35:03.236Z,1.56
2018-12-17T09:36:02.546Z,1.5
2018-12-17T09:37:02.895Z,1.56
2018-12-17T09:38:03.174Z,1.62
2018-12-17T09:39:02.571Z,1.56
2018-12-17T09:40:02.892Z,1.5
2018-12-17T09:41:03.175Z,1.5
2018-12-17T09:42:02.487Z,1.56
2018-12-17T09:43:02.755Z,1.56
2018-12-17T09:44:03.842Z,1.62
2018-12-17T09:45:03.199Z,1.68
2018-12-17T09:46:02.534Z,1.68
2018-12-17T09:47:02.885Z,1.62
2018-12-17T09:48:03.150Z,1.62
2018-12-17T09:49:02.440Z,1.56
2018-12-17T09:50:02.753Z,1.62
2018-12-17T09:51:02.995Z,1.62
2018-12-17T09:52:02.297Z,1.62
2018-12-17T09:53:02.655Z,1.62
2018-12-17T09:54:02.984Z,1.62
2018-12-17T09:55:02.274Z,1.68
2018-12-17T09:56:02.603Z,1.68
2018-12-17T09:57:02.910Z,1.68
2018-12-17T09:58:03.245Z,1.68
2018-12-17T09:59:02.602Z,1.68
2018-12-17T10:00:02.920Z,1.75
2018-12-17T10:01:03.237Z,1.68
2018-12-17T10:02:02.518Z,1.68
2018-12-17T10:03:02.839Z,1.62
2018-12-17T10:04:03.210Z,1.68
2018-12-17T10:05:02.536Z,1.68
2018-12-17T10:06:02.829Z,1.62
2018-12-17T10:07:03.083Z,1.75
2018-12-17T10:08:02.368Z,1.68
2018-12-17T10:09:02.679Z,1.81
2018-12-17T10:10:03.053Z,1.81
2018-12-17T10:11:02.360Z,1.87
2018-12-17T10:12:02.680Z,1.81
2018-12-17T10:13:03.014Z,1.81
2018-12-17T10:14:02.278Z,1.87
2018-12-17T10:15:02.652Z,1.87
2018-12-17T10:16:03.850Z,1.87
2018-12-17T10:17:04.055Z,1.87
2018-12-17T10:18:02.374Z,1.87
2018-12-17T10:19:02.672Z,1.87
2018-12-17T10:20:02.939Z,1.87
2018-12-17T10:21:04.152Z,1.81
2018-12-17T10:22:03.402Z,1.87
2018-12-17T10:23:02.678Z,1.87
2018-12-17T10:24:03.013Z,1.81
2018-12-17T10:25:02.280Z,1.87
2018-12-17T10:26:02.655Z,1.81
2018-12-17T10:27:02.934Z,1.81
2018-12-17T10:28:03.312Z,1.81
2018-12-17T10:29:02.655Z,1.87
2018-12-17T10:30:02.898Z,1.87
2018-12-17T10:31:03.175Z,2
2018-12-17T10:32:02.438Z,2
2018-12-17T10:33:02.780Z,1.93
2018-12-17T10:34:03.174Z,1.93
2018-12-17T10:35:02.438Z,2
2018-12-17T10:36:03.634Z,2
2018-12-17T10:37:02.930Z,2.12
2018-12-17T10:38:03.232Z,2.12
2018-12-17T10:39:02.528Z,2.18
2018-12-17T10:40:03.002Z,2.18
2018-12-17T10:41:02.338Z,2.25
2018-12-17T10:42:02.671Z,2.12
2018-12-17T10:43:02.911Z,2.06
2018-12-17T10:44:03.235Z,2.06
2018-12-17T10:45:02.522Z,2.18
2018-12-17T10:46:02.902Z,2.18
2018-12-17T10:47:03.171Z,2.18
2018-12-17T10:48:02.437Z,2.25
2018-12-17T10:49:02.755Z,2.43
2018-12-17T10:50:02.991Z,2.5
2018-12-17T10:51:02.305Z,2.37
2018-12-17T10:52:02.646Z,2.31
2018-12-17T10:53:02.916Z,2.37
2018-12-17T10:54:03.246Z,2.5
2018-12-17T10:55:02.525Z,2.37
2018-12-17T10:56:02.839Z,2.37
2018-12-17T10:57:03.261Z,2.37
2018-12-17T10:58:02.573Z,2.43
2018-12-17T10:59:02.840Z,2.43
2018-12-17T11:00:03.166Z,2.56
2018-12-17T11:01:02.442Z,2.68
2018-12-17T11:02:02.747Z,2.68
2018-12-17T11:03:03.049Z,2.68
2018-12-17T11:04:02.364Z,2.62
2018-12-17T11:05:02.668Z,2.56
2018-12-17T11:06:02.934Z,2.62
2018-12-17T11:07:03.245Z,2.56
2018-12-17T11:08:02.566Z,2.68
2018-12-17T11:09:02.910Z,2.68
2018-12-17T11:10:03.167Z,2.68
2018-12-17T11:11:02.429Z,2.81
2018-12-17T11:12:02.677Z,2.68
2018-12-17T11:13:03.055Z,2.68
2018-12-17T11:14:02.371Z,2.56
2018-12-17T11:15:02.676Z,2.56
2018-12-17T11:16:02.990Z,2.5
2018-12-17T11:17:02.258Z,2.56
2018-12-17T11:18:02.519Z,2.56
2018-12-17T11:19:02.886Z,2.56
2018-12-17T11:20:03.163Z,2.56
2018-12-17T11:21:02.454Z,2.56
2018-12-17T11:22:02.763Z,2.56
2018-12-17T11:23:03.962Z,2.5
2018-12-17T11:24:02.300Z,2.5
2018-12-17T11:25:02.697Z,2.43
2018-12-17T11:26:02.990Z,2.5
2018-12-17T11:27:02.369Z,2.43
2018-12-17T11:28:02.697Z,2.37
2018-12-17T11:29:03.053Z,2.37
2018-12-17T11:30:02.406Z,2.31
2018-12-17T11:31:02.700Z,2.31
2018-12-17T11:32:02.994Z,2.31
2018-12-17T11:33:02.283Z,2.31
2018-12-17T11:34:02.598Z,2.31
2018-12-17T11:35:02.938Z,2.31
2018-12-17T11:36:03.300Z,2.25
2018-12-17T11:37:02.588Z,2.25
2018-12-17T11:38:02.858Z,2.25
2018-12-17T11:39:03.151Z,2.18
2018-12-17T11:40:02.442Z,2.31
2018-12-17T11:41:02.781Z,2.31
2018-12-17T11:42:03.175Z,2.31
2018-12-17T11:43:02.429Z,2.31
2018-12-17T11:44:02.710Z,2.25
2018-12-17T11:45:03.090Z,2.25
2018-12-17T11:46:02.362Z,2.31
2018-12-17T11:47:02.686Z,2.31
2018-12-17T11:48:03.059Z,2.25
2018-12-17T11:49:02.361Z,2.25
2018-12-17T11:50:02.676Z,2.18
2018-12-17T11:51:03.011Z,2.12
2018-12-17T11:52:02.283Z,2.12
2018-12-17T11:53:02.614Z,2.06
2018-12-17T11:54:02.960Z,2
2018-12-17T11:55:04.040Z,2.06
2018-12-17T11:56:03.235Z,2
2018-12-17T11:57:02.519Z,1.93
2018-12-17T11:58:02.833Z,1.93
2018-12-17T11:59:03.093Z,1.93
2018-12-17T12:00:02.419Z,1.93
2018-12-17T12:01:03.188Z,1.93
2018-12-17T12:02:02.513Z,1.93
2018-12-17T12:03:02.839Z,1.93
2018-12-17T12:04:03.165Z,1.93
2018-12-17T12:05:02.501Z,1.93
2018-12-17T12:06:02.784Z,1.93
2018-12-17T12:07:03.074Z,1.93
2018-12-17T12:08:02.373Z,1.93
2018-12-17T12:09:02.692Z,1.87
2018-12-17T12:10:03.057Z,1.87
2018-12-17T12:11:02.366Z,1.87
2018-12-17T12:12:02.702Z,1.93
2018-12-17T12:13:02.991Z,1.93
2018-12-17T12:14:02.277Z,2
2018-12-17T12:15:02.656Z,2
2018-12-17T12:16:02.970Z,2
2018-12-17T12:17:03.157Z,2
2018-12-17T12:18:03.391Z,2
2018-12-17T12:19:02.695Z,1.93
2018-12-17T12:20:03.045Z,2
2018-12-17T12:21:02.364Z,2
2018-12-17T12:22:02.685Z,2
2018-12-17T12:23:03.005Z,2.06
2018-12-17T12:24:02.241Z,2.06
2018-12-17T12:25:02.616Z,2
2018-12-17T12:26:02.912Z,2
2018-12-17T12:27:03.236Z,2.06
2018-12-17T12:28:02.523Z,2.12
2018-12-17T12:29:02.836Z,2.12
2018-12-17T12:30:03.260Z,2.06
2018-12-17T12:31:02.580Z,2
2018-12-17T12:32:02.818Z,2
2018-12-17T12:33:03.070Z,2
2018-12-17T12:34:02.360Z,2
2018-12-17T12:35:02.736Z,2
2018-12-17T12:36:03.026Z,2
2018-12-17T12:37:02.288Z,2
2018-12-17T12:38:02.598Z,1.93
2018-12-17T12:39:02.919Z,1.93
2018-12-17T12:40:03.233Z,1.93
2018-12-17T12:41:02.606Z,1.93
2018-12-17T12:42:02.919Z,1.93
2018-12-17T12:43:03.246Z,1.93
2018-12-17T12:44:08.651Z,2
2018-12-17T12:45:03.141Z,2.06
2018-12-17T12:46:02.444Z,2.06
2018-12-17T12:47:02.812Z,2
2018-12-17T12:48:03.076Z,2
2018-12-17T12:49:02.349Z,2.18
2018-12-17T12:50:02.693Z,2.25
2018-12-17T12:51:03.093Z,2.25
2018-12-17T12:52:02.439Z,2.18
2018-12-17T12:53:02.778Z,2.18
2018-12-17T12:54:03.083Z,2.37
2018-12-17T12:55:02.379Z,2.5
2018-12-17T12:56:02.680Z,2.37
2018-12-17T12:57:03.114Z,2.37
2018-12-17T12:58:03.716Z,2.43
2018-12-17T12:59:02.275Z,2.5
2018-12-17T13:00:02.604Z,2.62
2018-12-17T13:01:07.507Z,2.56
2018-12-17T13:02:04.086Z,2.43
2018-12-17T13:03:02.354Z,2.31
2018-12-17T13:04:02.702Z,2.37
2018-12-17T13:05:03.004Z,2.37
2018-12-17T13:06:02.279Z,2.31
2018-12-17T13:07:02.647Z,2.31
2018-12-17T13:08:02.974Z,2.43
2018-12-17T13:09:02.321Z,2.37
2018-12-17T13:10:02.580Z,2.43
2018-12-17T13:11:03.717Z,2.5
2018-12-17T13:12:03.014Z,2.5